Export, Pennsylvania
Current Conditions -  °F | °C
As of 6:53 PM on Thursday 18 Dec 2014 (Local Time) from KAGC Reporting Station
Overcast Overcast  
Wind Chill: 21°   Ceiling: 1800
Heat Index: 28°   Visibility: 10mi
Dew Point: 19°   Wind: 7mph
Humidity: 69%   Direction: 270°W
Pressure: 30.14"   Gusts: NA
Location:  40.42°N, 79.63°W
Report Text: KAGC 182353Z 27006KT 10SM OVC018 M02/M07 A3014 RMK AO2 SLP227 T10221072 11017 21022 55001
Loading
Personal Weather Stations






























Interactive Weather Map New forecast layout! Learn more

10-Day Weather Forecast

Advertisements
Track Severe Weather on mobile